Etusivu
METAR-TAF:

METAR-TAF

Lentoasemat :

Franjo Tuđmanin lentoasema

Zagreb, Kroatia

Leveyspiiri: 45-44N, Pituuspiiri: 016-04E, korkeus merenpinnasta: 106 m

Tämänhetkinen sää

Tämä raportti tehtiin 25 minuuttia sitten, kello 15.00 UTC
Tuuli 6 kn idästä, vaihdellen idän/koillisen ja etelän/kaakon välillä
Lämpötila 29°C
Kosteus 48%
Ilmanpaine 1019 hPa
Näkyvyys 10 km tai enemmän
ei pilviä alle 1500 m:ssä eikä cumulonimbus-pilviä

METAR: LDZA 201500Z 10006KT 060V150 CAVOK 29/17 Q1019 NOSIG

Aika: 17:25 (15:25 UTC)

Sääennuste

Tämä raportti tehtiin 4 tuntia ja 0 minuuttia sitten, kello 11.25 UTC
Ennuste voimassa 20. päivästä klo 12 UTC - 21. päivään klo 12 UTC
Tuuli 7 kn idästä/koillisesta
Näkyvyys 10 km tai enemmän
ei pilviä alle 1500 m:ssä eikä cumulonimbus-pilviä
Tulossa
20. päivästä klo 16 UTC - 20. päivään klo 18 UTC
Tuuli 2 kn eri suunnista

TAF: LDZA 201125Z 2012/2112 06007KT CAVOK TX29/2014Z TN18/2103Z BECMG 2016/2018 VRB02KT

Säähavainnot ja -ennusteet yli 4000 lentoasemalta (METAR- ja TAF-raportit).

Käytössä olevat sääasemat on merkitty karttaan keltaisilla ja punaisilla pisteillä.

Aseta hiiri pisteen päälle nähdäksesi sääaseman nimen.

Klikkaa sitten nähdäksesi säähavainnot ja -ennusteet.

Kartan vaihtaminen: klikkaa mustalla rastilla varustettuja vihreitä pisteitä, niin voit zoomata sisään; viivalla varustettua vihreää pistettä, niin voit zoomata ulos tai vihreitä nuolia, niin pääset viereisille kartoille.


METAR-TAF: